createdAt,value
2018-07-23T05:32:22.503Z,16.20
2018-07-23T05:34:51.080Z,16.30
2018-07-23T05:37:19.719Z,16.60
2018-07-23T05:39:48.286Z,16.70
2018-07-23T05:42:16.873Z,16.80
2018-07-23T05:44:46.070Z,17.00
2018-07-23T05:47:14.666Z,17.00
2018-07-23T05:49:43.258Z,17.00
2018-07-23T05:52:12.464Z,17.10
2018-07-23T05:54:41.125Z,17.20
2018-07-23T05:57:09.796Z,17.20
2018-07-23T05:59:38.342Z,17.20
2018-07-23T06:02:07.293Z,17.40
2018-07-23T06:04:35.911Z,17.40
2018-07-23T06:07:04.917Z,17.60
2018-07-23T06:09:33.542Z,17.60
2018-07-23T06:12:02.119Z,17.60
2018-07-23T06:14:30.725Z,17.80
2018-07-23T06:16:59.342Z,17.80
2018-07-23T06:19:28.270Z,17.90
2018-07-23T06:21:56.871Z,18.10
2018-07-23T06:24:25.516Z,18.30
2018-07-23T06:26:54.155Z,18.30
2018-07-23T06:29:22.776Z,18.30
2018-07-23T06:31:51.419Z,18.30
2018-07-23T06:34:20.024Z,18.40
2018-07-23T06:36:48.644Z,18.50
2018-07-23T06:39:19.071Z,18.60
2018-07-23T06:41:47.710Z,18.70
2018-07-23T06:44:16.315Z,18.80
2018-07-23T06:46:45.022Z,18.80
2018-07-23T06:49:13.556Z,18.80
2018-07-23T06:51:42.107Z,19.00
2018-07-23T06:54:10.805Z,19.20
2018-07-23T06:56:39.586Z,19.30
2018-07-23T06:59:08.161Z,19.40
2018-07-23T07:01:36.781Z,19.50
2018-07-23T07:04:05.434Z,19.70
2018-07-23T07:06:34.050Z,19.70
2018-07-23T07:09:02.743Z,19.80
2018-07-23T07:11:31.431Z,20.00
2018-07-23T07:14:00.080Z,20.10
2018-07-23T07:16:28.805Z,20.10
2018-07-23T07:18:57.554Z,20.10
2018-07-23T07:21:26.176Z,20.20
2018-07-23T07:23:54.811Z,20.30
2018-07-23T07:26:23.530Z,20.20
2018-07-23T07:28:52.096Z,20.30
2018-07-23T07:31:23.393Z,20.40
2018-07-23T07:33:51.950Z,20.60
2018-07-23T07:36:21.291Z,20.70
2018-07-23T07:38:49.874Z,20.70
2018-07-23T07:41:18.422Z,20.80
2018-07-23T07:43:47.027Z,20.90
2018-07-23T07:46:15.620Z,21.00
2018-07-23T07:48:44.172Z,21.10
2018-07-23T07:51:12.759Z,21.20
2018-07-23T07:53:41.409Z,21.20
2018-07-23T07:56:09.991Z,21.10
2018-07-23T07:58:38.587Z,21.50
2018-07-23T08:01:07.217Z,21.50
2018-07-23T08:03:36.716Z,21.50
2018-07-23T08:06:05.323Z,21.50
2018-07-23T08:08:33.901Z,21.60
2018-07-23T08:11:02.495Z,21.80
2018-07-23T08:13:31.975Z,21.90
2018-07-23T08:16:00.718Z,22.00
2018-07-23T08:18:29.258Z,22.10
2018-07-23T08:20:57.814Z,22.30
2018-07-23T08:23:26.439Z,22.30
2018-07-23T08:25:55.111Z,22.40
2018-07-23T08:28:23.707Z,22.50
2018-07-23T08:30:52.450Z,22.50
2018-07-23T08:33:21.127Z,22.50
2018-07-23T08:35:49.679Z,22.70
2018-07-23T08:38:18.330Z,22.90
2018-07-23T08:40:47.539Z,22.90
2018-07-23T08:43:16.481Z,22.90
2018-07-23T08:45:59.473Z,23.10
2018-07-23T08:48:28.192Z,23.10
2018-07-23T08:50:58.857Z,23.30
2018-07-23T08:53:27.483Z,23.30
2018-07-23T08:55:59.037Z,23.40
2018-07-23T08:58:29.513Z,23.50
2018-07-23T09:00:58.079Z,23.50
2018-07-23T09:03:28.406Z,23.70
2018-07-23T09:05:57.234Z,23.70
2018-07-23T09:08:27.931Z,23.90
2018-07-23T09:10:56.534Z,23.80
2018-07-23T09:13:25.151Z,23.80
2018-07-23T09:15:53.742Z,23.80
2018-07-23T09:18:22.484Z,23.90
2018-07-23T09:20:51.222Z,24.00
2018-07-23T09:23:19.891Z,24.20
2018-07-23T09:25:52.131Z,24.20
2018-07-23T09:28:21.119Z,24.30
2018-07-23T09:30:51.355Z,24.30
2018-07-23T09:33:21.087Z,24.20
2018-07-23T09:35:50.120Z,24.30
2018-07-23T09:38:19.022Z,24.20
2018-07-23T09:40:47.619Z,24.30
2018-07-23T09:43:16.237Z,24.40
2018-07-23T09:45:44.857Z,24.50
2018-07-23T09:48:19.728Z,24.60
2018-07-23T09:50:52.582Z,24.60
2018-07-23T09:53:21.340Z,24.80
2018-07-23T09:55:49.944Z,24.80
2018-07-23T09:58:18.853Z,24.80
2018-07-23T10:00:52.875Z,25.00
2018-07-23T10:03:22.554Z,25.10
2018-07-23T10:05:51.293Z,25.20
2018-07-23T10:08:20.061Z,25.40
2018-07-23T10:10:48.688Z,25.30
2018-07-23T10:13:19.415Z,25.40
2018-07-23T10:15:50.409Z,25.50
2018-07-23T10:18:19.950Z,25.60
2018-07-23T10:20:48.879Z,25.60
2018-07-23T10:23:18.407Z,25.50
2018-07-23T10:25:47.765Z,25.50
2018-07-23T10:28:16.895Z,25.50
2018-07-23T10:30:46.507Z,25.90
2018-07-23T10:33:15.327Z,26.20
2018-07-23T10:35:44.854Z,26.40
2018-07-23T10:38:14.093Z,26.60
2018-07-23T10:40:48.003Z,26.60
2018-07-23T10:43:18.074Z,26.40
2018-07-23T10:45:46.926Z,26.60
2018-07-23T10:48:15.911Z,26.80
2018-07-23T10:50:44.575Z,26.90
2018-07-23T10:53:13.180Z,27.00
2018-07-23T10:55:41.767Z,27.00
2018-07-23T10:58:10.380Z,27.00
2018-07-23T11:00:39.882Z,26.80
2018-07-23T11:03:13.396Z,27.00
2018-07-23T11:05:42.047Z,27.30
2018-07-23T11:08:10.683Z,27.20
2018-07-23T11:10:39.288Z,27.10
2018-07-23T11:13:08.232Z,27.00
2018-07-23T11:15:36.870Z,27.00
2018-07-23T11:18:05.562Z,27.20
2018-07-23T11:20:34.177Z,27.60
2018-07-23T11:23:02.827Z,27.90
2018-07-23T11:25:39.525Z,28.00
2018-07-23T11:28:00.124Z,27.90
2018-07-23T11:30:28.748Z,28.00
2018-07-23T11:32:57.396Z,28.00
2018-07-23T11:35:26.353Z,27.80
2018-07-23T11:37:55.043Z,27.90
2018-07-23T11:40:23.694Z,27.70
2018-07-23T11:42:52.300Z,27.60
2018-07-23T11:45:21.556Z,27.90
2018-07-23T11:47:50.145Z,28.20
2018-07-23T11:50:18.786Z,28.80
2018-07-23T11:52:47.414Z,29.10
2018-07-23T11:55:15.993Z,28.90
2018-07-23T11:57:44.610Z,28.10
2018-07-23T12:00:13.231Z,28.10
2018-07-23T12:02:41.819Z,29.20
2018-07-23T12:05:10.383Z,30.40
2018-07-23T12:07:38.951Z,31.50
2018-07-23T12:10:07.615Z,30.90
2018-07-23T12:12:36.298Z,29.80
2018-07-23T12:15:05.353Z,29.40
2018-07-23T12:17:34.114Z,30.20
2018-07-23T12:20:02.700Z,30.80
2018-07-23T12:22:31.270Z,31.50
2018-07-23T12:24:59.848Z,31.50
2018-07-23T12:27:28.490Z,31.90
2018-07-23T12:29:57.101Z,33.60
2018-07-23T12:32:25.729Z,35.00
2018-07-23T12:34:54.281Z,36.00
2018-07-23T12:37:22.956Z,35.90
2018-07-23T12:39:51.656Z,34.70
2018-07-23T12:42:20.535Z,34.70
2018-07-23T12:44:49.221Z,34.60
2018-07-23T12:47:17.919Z,34.20
2018-07-23T12:49:46.539Z,33.70
2018-07-23T12:52:15.213Z,33.60
2018-07-23T12:54:43.839Z,34.20
2018-07-23T12:57:12.428Z,34.20
2018-07-23T12:59:41.047Z,33.50
2018-07-23T13:02:09.631Z,33.40
2018-07-23T13:04:38.781Z,32.60
2018-07-23T13:07:07.553Z,33.00
2018-07-23T13:09:36.199Z,32.40
2018-07-23T13:12:04.793Z,32.00
2018-07-23T13:17:08.277Z,31.20
2018-07-23T13:19:37.007Z,31.40
2018-07-23T13:22:05.697Z,31.80
2018-07-23T13:24:34.835Z,31.60
2018-07-23T13:27:03.539Z,31.10
2018-07-23T13:29:32.132Z,30.60
2018-07-23T13:32:00.726Z,30.20
2018-07-23T13:34:29.396Z,29.50
2018-07-23T13:36:58.018Z,29.00
2018-07-23T13:39:26.638Z,28.80
2018-07-23T13:41:55.400Z,28.70
2018-07-23T13:44:23.970Z,28.50
2018-07-23T13:46:52.586Z,28.30
2018-07-23T13:49:21.293Z,28.10
2018-07-23T13:51:49.923Z,28.00
2018-07-23T13:54:18.707Z,28.10
2018-07-23T13:56:47.443Z,28.00
2018-07-23T13:59:16.178Z,28.10
2018-07-23T14:01:44.887Z,29.00
2018-07-23T14:04:13.570Z,30.10
2018-07-23T14:06:42.148Z,31.30
2018-07-23T14:09:12.355Z,32.00
2018-07-23T14:11:41.462Z,32.40
2018-07-23T14:14:10.359Z,32.20
2018-07-23T14:16:39.044Z,32.20
2018-07-23T14:19:08.151Z,32.50
2018-07-23T14:21:36.819Z,32.70
2018-07-23T14:24:05.628Z,32.40
2018-07-23T14:26:34.378Z,31.90
2018-07-23T14:29:03.329Z,32.10
2018-07-23T14:31:31.916Z,32.20
2018-07-23T14:34:00.636Z,32.40
2018-07-23T14:36:29.296Z,32.00
2018-07-23T14:38:58.801Z,31.70
2018-07-23T14:41:27.515Z,31.90
2018-07-23T14:43:56.236Z,32.10
2018-07-23T14:46:24.848Z,32.10
2018-07-23T14:48:55.601Z,32.40
2018-07-23T14:51:24.956Z,32.40
2018-07-23T14:53:54.643Z,32.40
2018-07-23T14:56:23.406Z,32.20
2018-07-23T14:58:52.028Z,32.10
2018-07-23T15:01:20.669Z,31.70
2018-07-23T15:03:49.317Z,31.50
2018-07-23T15:06:17.887Z,31.40
2018-07-23T15:08:46.480Z,31.20
2018-07-23T15:11:15.479Z,31.00
2018-07-23T15:13:44.103Z,31.00
2018-07-23T15:16:12.721Z,31.00
2018-07-23T15:18:41.309Z,31.10
2018-07-23T15:21:09.893Z,31.00
2018-07-23T15:23:38.502Z,31.00
2018-07-23T15:26:08.011Z,31.10
2018-07-23T15:28:37.058Z,31.10
2018-07-23T15:31:05.639Z,31.20
2018-07-23T15:33:34.223Z,31.20
2018-07-23T15:36:02.898Z,31.10
2018-07-23T15:38:35.571Z,30.60
2018-07-23T15:41:04.349Z,30.10
2018-07-23T15:43:36.127Z,29.80
2018-07-23T15:46:09.371Z,29.80
2018-07-23T15:48:37.958Z,30.00
2018-07-23T15:51:06.563Z,30.20
2018-07-23T15:53:39.253Z,29.60
2018-07-23T15:56:12.976Z,29.10
2018-07-23T15:58:42.290Z,28.80
2018-07-23T16:01:12.024Z,28.50
2018-07-23T16:03:43.812Z,28.40
2018-07-23T16:06:12.370Z,28.30
2018-07-23T16:08:41.487Z,28.10
2018-07-23T16:11:10.120Z,28.00
2018-07-23T16:13:39.424Z,28.50
2018-07-23T16:16:08.010Z,28.90
2018-07-23T16:18:36.599Z,29.30
2018-07-23T16:21:05.265Z,29.60
2018-07-23T16:23:33.846Z,29.80
2018-07-23T16:26:02.482Z,30.10
2018-07-23T16:28:31.112Z,30.30
2018-07-23T16:30:59.748Z,30.40
2018-07-23T16:33:28.448Z,30.40
2018-07-23T16:35:57.096Z,30.30
2018-07-23T16:38:25.734Z,30.30
2018-07-23T16:40:54.337Z,30.20
2018-07-23T16:43:22.963Z,30.20
2018-07-23T16:45:51.542Z,30.30
2018-07-23T16:48:20.156Z,30.40
2018-07-23T16:50:49.425Z,30.20
2018-07-23T16:53:18.043Z,29.80
2018-07-23T16:55:46.661Z,29.80
2018-07-23T16:58:17.370Z,29.70
2018-07-23T17:00:46.003Z,29.60
2018-07-23T17:03:14.641Z,29.70
2018-07-23T17:05:45.598Z,29.50
2018-07-23T17:08:15.034Z,29.40
2018-07-23T17:10:43.614Z,29.30
2018-07-23T17:13:12.514Z,29.40
2018-07-23T17:15:41.090Z,29.70
2018-07-23T17:18:09.886Z,30.20
2018-07-23T17:20:38.393Z,30.40
2018-07-23T17:23:07.058Z,30.40
2018-07-23T17:25:35.686Z,30.10
2018-07-23T17:28:04.391Z,29.70
2018-07-23T17:33:01.538Z,29.40
2018-07-23T17:35:30.622Z,29.30
2018-07-23T17:37:59.253Z,29.40
2018-07-23T17:40:28.006Z,29.30
2018-07-23T17:42:57.792Z,29.20
2018-07-23T17:45:26.649Z,29.10
2018-07-23T17:47:55.262Z,29.00
2018-07-23T17:50:23.922Z,29.00
2018-07-23T17:52:52.560Z,28.90
2018-07-23T17:55:21.325Z,28.80
2018-07-23T17:57:50.086Z,28.70
2018-07-23T18:00:18.719Z,28.70
2018-07-23T18:02:47.365Z,28.80
2018-07-23T18:05:16.837Z,28.70
2018-07-23T18:07:45.539Z,28.70
2018-07-23T18:10:14.269Z,28.80
2018-07-23T18:12:42.969Z,28.70
2018-07-23T18:15:11.823Z,28.70
2018-07-23T18:17:40.639Z,28.60
2018-07-23T18:20:09.266Z,28.40
2018-07-23T18:22:37.858Z,28.30
2018-07-23T18:25:06.487Z,28.40
2018-07-23T18:27:35.433Z,28.20
2018-07-23T18:30:05.187Z,28.20
2018-07-23T18:32:33.827Z,28.30
2018-07-23T18:35:02.537Z,28.20
2018-07-23T18:37:31.109Z,28.30
2018-07-23T18:40:01.149Z,28.40
2018-07-23T18:42:30.360Z,28.10
2018-07-23T18:44:59.067Z,27.50
2018-07-23T18:47:27.658Z,27.00
2018-07-23T18:49:58.110Z,26.60
2018-07-23T18:52:27.805Z,26.10
2018-07-23T18:54:58.840Z,25.80
2018-07-23T18:57:27.469Z,25.50
2018-07-23T18:59:56.122Z,25.30
2018-07-23T19:02:24.761Z,25.00
2018-07-23T19:04:54.224Z,24.80
2018-07-23T19:07:22.843Z,24.50
2018-07-23T19:09:52.084Z,24.30
2018-07-23T19:12:21.278Z,24.10
2018-07-23T19:14:50.095Z,23.90
2018-07-23T19:17:18.832Z,23.70
2018-07-23T19:19:47.577Z,23.60
2018-07-23T19:22:16.444Z,23.50
2018-07-23T19:24:45.227Z,23.40
2018-07-23T19:27:14.752Z,23.30
2018-07-23T19:29:43.398Z,23.20
2018-07-23T19:32:12.299Z,23.20
2018-07-23T19:34:41.068Z,23.20
2018-07-23T19:37:09.688Z,23.20
2018-07-23T19:39:38.346Z,23.20
2018-07-23T19:42:07.012Z,23.10
2018-07-23T19:44:36.152Z,23.00
2018-07-23T19:47:05.294Z,23.00
2018-07-23T19:49:33.966Z,23.00
2018-07-23T19:52:02.887Z,22.90
2018-07-23T19:54:31.681Z,22.70
2018-07-23T19:57:00.356Z,22.50
2018-07-23T19:59:29.095Z,22.30
2018-07-23T20:01:57.946Z,22.20
2018-07-23T20:04:26.761Z,22.10
2018-07-23T20:06:55.637Z,21.90
2018-07-23T20:09:24.330Z,21.80
2018-07-23T20:11:53.127Z,21.90
2018-07-23T20:14:22.472Z,21.80
2018-07-23T20:16:51.306Z,21.80
2018-07-23T20:19:20.164Z,21.70
2018-07-23T20:21:48.845Z,21.60
2018-07-23T20:24:17.589Z,21.50
2018-07-23T20:26:46.407Z,21.40
2018-07-23T20:29:15.107Z,21.40
2018-07-23T20:31:43.903Z,21.40
2018-07-23T20:34:12.560Z,21.40
2018-07-23T20:36:42.365Z,21.40
2018-07-23T20:39:10.991Z,21.40
2018-07-23T20:41:39.850Z,21.40
2018-07-23T20:44:08.571Z,21.40
2018-07-23T20:46:37.180Z,21.30
2018-07-23T20:49:05.985Z,21.20
2018-07-23T20:51:35.000Z,21.20
2018-07-23T20:54:03.781Z,21.10
2018-07-23T20:56:32.484Z,21.00
2018-07-23T20:59:01.216Z,21.00
2018-07-23T21:01:29.990Z,21.00
2018-07-23T21:03:58.760Z,20.90
2018-07-23T21:06:27.425Z,21.00
2018-07-23T21:08:55.984Z,20.90
2018-07-23T21:11:24.611Z,21.00
2018-07-23T21:16:21.425Z,21.10
2018-07-23T21:18:49.982Z,21.00
2018-07-23T21:21:18.655Z,20.80
2018-07-23T21:23:47.512Z,20.50
2018-07-23T21:26:16.239Z,20.40
2018-07-23T21:28:44.945Z,20.40
2018-07-23T21:31:13.855Z,20.30
2018-07-23T21:33:42.617Z,20.20
2018-07-23T21:36:11.270Z,20.10
2018-07-23T21:38:39.839Z,20.00
2018-07-23T21:41:08.684Z,20.00
2018-07-23T21:43:37.792Z,20.00
2018-07-23T21:46:07.387Z,20.00
2018-07-23T21:48:37.240Z,20.00
2018-07-23T21:51:06.494Z,20.00
2018-07-23T21:53:37.031Z,20.10
2018-07-23T21:56:05.993Z,20.10
2018-07-23T21:58:34.788Z,20.00
2018-07-23T22:01:04.164Z,20.00
2018-07-23T22:06:01.781Z,20.00
2018-07-23T22:08:30.870Z,20.00
2018-07-23T22:11:00.008Z,19.90
2018-07-23T22:13:28.806Z,19.90
2018-07-23T22:15:57.673Z,19.90
2018-07-23T22:18:27.592Z,19.80
2018-07-23T22:20:56.713Z,19.80
2018-07-23T22:23:26.683Z,19.80
2018-07-23T22:25:55.840Z,19.80
2018-07-23T22:28:24.735Z,19.80
2018-07-23T22:30:53.390Z,19.80
2018-07-23T22:33:22.412Z,19.90
2018-07-23T22:35:51.216Z,19.90
2018-07-23T22:38:19.790Z,19.80
2018-07-23T22:40:48.374Z,19.90
2018-07-23T22:43:17.004Z,19.90
2018-07-23T22:45:45.676Z,19.90
2018-07-23T22:48:14.439Z,19.90
2018-07-23T22:53:12.334Z,19.80
2018-07-23T22:55:41.203Z,19.70
2018-07-23T22:58:09.797Z,19.60
